createdAt,value
2022-08-06T00:02:28.272Z,99722.81
2022-08-06T00:12:35.211Z,99726.53
2022-08-06T00:22:38.488Z,99721.19
2022-08-06T00:32:43.288Z,99726.78
2022-08-06T00:42:46.108Z,99739.56
2022-08-06T00:52:51.911Z,99736.97
2022-08-06T01:02:53.772Z,99744.91
2022-08-06T01:12:56.076Z,99751.41
2022-08-06T01:23:23.272Z,99768.19
2022-08-06T01:33:31.906Z,99763.19
2022-08-06T01:44:06.894Z,99757.00
2022-08-06T01:54:09.111Z,99773.16
2022-08-06T02:04:11.944Z,99771.19
2022-08-06T02:14:17.902Z,99775.25
2022-08-06T02:24:23.920Z,99783.63
2022-08-06T02:34:31.253Z,99771.53
2022-08-06T02:44:46.010Z,99782.09
2022-08-06T02:54:58.421Z,99787.56
2022-08-06T03:05:04.309Z,99787.09
2022-08-06T03:15:11.212Z,99797.22
2022-08-06T03:25:20.356Z,99812.34
2022-08-06T03:35:41.279Z,99824.47
2022-08-06T03:45:55.565Z,99813.50
2022-08-06T03:56:00.273Z,99820.22
2022-08-06T04:06:03.665Z,99828.91
2022-08-06T04:16:08.422Z,99849.19
2022-08-06T04:26:15.555Z,99842.63
2022-08-06T04:36:24.223Z,99844.28
2022-08-06T04:46:27.767Z,99842.50
2022-08-06T04:56:33.338Z,99848.00
2022-08-06T05:06:48.169Z,99852.75
2022-08-06T05:16:53.372Z,99844.34
2022-08-06T05:26:57.027Z,99841.97
2022-08-06T05:38:01.997Z,99856.25
2022-08-06T05:47:55.905Z,99846.19
2022-08-06T05:58:02.447Z,99848.88
2022-08-06T06:08:10.474Z,99848.56
2022-08-06T06:19:00.363Z,99844.03
2022-08-06T06:29:55.582Z,99849.56
2022-08-06T06:40:14.350Z,99844.75
2022-08-06T06:50:23.384Z,99842.47
2022-08-06T07:00:44.039Z,99831.00
2022-08-06T07:10:47.935Z,99832.63
2022-08-06T07:20:50.235Z,99818.81
2022-08-06T07:30:52.369Z,99819.00
2022-08-06T07:40:58.878Z,99824.34
2022-08-06T07:51:04.416Z,99817.16
2022-08-06T08:01:07.134Z,99817.75
2022-08-06T08:11:11.461Z,99812.06
2022-08-06T08:21:15.607Z,99805.19
2022-08-06T08:31:25.825Z,99800.19
2022-08-06T08:41:49.265Z,99805.16
2022-08-06T08:51:53.000Z,99812.34
2022-08-06T09:01:57.453Z,99806.75
2022-08-06T09:12:05.311Z,99812.75
2022-08-06T09:22:23.295Z,99825.16
2022-08-06T09:32:54.790Z,99819.19
2022-08-06T09:42:58.042Z,99815.66
2022-08-06T09:53:06.041Z,99815.44
2022-08-06T10:04:04.859Z,99805.03
2022-08-06T10:13:51.325Z,99797.94
2022-08-06T10:24:14.004Z,99799.88
2022-08-06T10:34:33.492Z,99789.53
2022-08-06T10:44:39.101Z,99789.03
2022-08-06T10:54:51.348Z,99801.84
2022-08-06T11:05:25.376Z,99795.00
2022-08-06T11:15:29.292Z,99786.91
2022-08-06T11:25:42.408Z,99788.03
2022-08-06T11:35:54.190Z,99784.03
2022-08-06T11:46:31.901Z,99786.31
2022-08-06T11:57:07.625Z,99769.66
2022-08-06T12:07:15.595Z,99778.19
2022-08-06T12:17:20.889Z,99765.75
2022-08-06T12:27:24.489Z,99752.78
2022-08-06T12:37:41.046Z,99752.91
2022-08-06T12:48:11.648Z,99752.63
2022-08-06T12:58:41.448Z,99745.63
2022-08-06T13:08:44.351Z,99746.94
2022-08-06T13:19:08.146Z,99749.47
2022-08-06T13:30:32.674Z,99747.72
2022-08-06T13:39:51.765Z,99734.00
2022-08-06T13:50:03.729Z,99744.88
2022-08-06T14:00:44.735Z,99736.44
2022-08-06T14:10:46.753Z,99718.88
2022-08-06T14:21:14.851Z,99733.06
2022-08-06T14:31:16.945Z,99716.16
2022-08-06T14:41:52.206Z,99711.06
2022-08-06T14:52:20.949Z,99710.59
2022-08-06T15:02:18.902Z,99700.22
2022-08-06T15:12:34.461Z,99707.06
2022-08-06T15:22:42.380Z,99706.97
2022-08-06T15:32:56.326Z,99693.50
2022-08-06T15:42:59.341Z,99697.78
2022-08-06T15:53:01.454Z,99700.78
2022-08-06T16:03:23.105Z,99708.00
2022-08-06T16:13:25.115Z,99706.94
2022-08-06T16:23:57.131Z,99708.94
2022-08-06T16:34:01.095Z,99709.34
2022-08-06T16:44:03.491Z,99703.38
2022-08-06T16:54:16.602Z,99701.34
2022-08-06T17:04:24.966Z,99716.06
2022-08-06T17:14:32.757Z,99712.53
2022-08-06T17:24:38.227Z,99720.34
2022-08-06T17:34:43.856Z,99719.34
2022-08-06T17:44:51.793Z,99712.78
2022-08-06T17:54:54.606Z,99725.81
2022-08-06T18:04:59.409Z,99731.00
2022-08-06T18:15:05.825Z,99738.09
2022-08-06T18:25:08.202Z,99752.72
2022-08-06T18:35:17.346Z,99748.97
2022-08-06T18:45:19.680Z,99753.63
2022-08-06T18:55:29.718Z,99754.31
2022-08-06T19:05:50.526Z,99764.16
2022-08-06T19:15:52.648Z,99769.28
2022-08-06T19:26:11.883Z,99758.16
2022-08-06T19:36:26.934Z,99768.19
2022-08-06T19:46:34.552Z,99763.38
2022-08-06T19:56:52.246Z,99757.81
2022-08-06T20:07:01.034Z,99767.44
2022-08-06T20:17:04.450Z,99770.06
2022-08-06T20:27:06.632Z,99787.69
2022-08-06T20:37:12.295Z,99784.09
2022-08-06T20:47:45.482Z,99778.13
2022-08-06T20:57:41.874Z,99775.88
2022-08-06T21:07:57.695Z,99776.03
2022-08-06T21:18:00.071Z,99773.75
2022-08-06T21:28:08.101Z,99782.16
2022-08-06T21:38:24.844Z,99779.47
2022-08-06T21:48:30.086Z,99771.34
2022-08-06T21:58:32.328Z,99755.47
2022-08-06T22:08:36.493Z,99749.69
2022-08-06T22:18:38.362Z,99743.78
2022-08-06T22:28:41.267Z,99742.28
2022-08-06T22:38:45.527Z,99737.97
2022-08-06T22:48:50.658Z,99729.22
2022-08-06T22:59:03.309Z,99731.31
2022-08-06T23:09:17.245Z,99722.69
2022-08-06T23:19:19.107Z,99724.53
2022-08-06T23:29:21.043Z,99740.88
2022-08-06T23:39:36.749Z,99742.50
2022-08-06T23:49:39.775Z,99726.59
2022-08-06T23:59:46.120Z,99723.16
